sensor_id;sensor_type;location;lat;lon;timestamp;P1;durP1;ratioP1;P2;durP2;ratioP2
65572;SDS011;52214;50.940;13.996;2022-11-23T00:00:36;31.25;;;11.57;;
65572;SDS011;52214;50.940;13.996;2022-11-23T00:03:02;36.38;;;12.63;;
65572;SDS011;52214;50.940;13.996;2022-11-23T00:05:28;32.63;;;11.55;;
65572;SDS011;52214;50.940;13.996;2022-11-23T00:07:54;28.57;;;10.27;;
65572;SDS011;52214;50.940;13.996;2022-11-23T00:10:20;28.98;;;11.40;;
65572;SDS011;52214;50.940;13.996;2022-11-23T00:12:46;28.80;;;11.50;;
65572;SDS011;52214;50.940;13.996;2022-11-23T00:15:12;32.50;;;11.60;;
65572;SDS011;52214;50.940;13.996;2022-11-23T00:17:39;34.75;;;11.93;;
65572;SDS011;52214;50.940;13.996;2022-11-23T00:20:06;31.30;;;11.60;;
65572;SDS011;52214;50.940;13.996;2022-11-23T00:22:32;32.15;;;10.85;;
65572;SDS011;52214;50.940;13.996;2022-11-23T00:24:58;34.60;;;10.93;;
65572;SDS011;52214;50.940;13.996;2022-11-23T00:27:24;31.90;;;11.87;;
65572;SDS011;52214;50.940;13.996;2022-11-23T00:29:49;32.97;;;11.95;;
65572;SDS011;52214;50.940;13.996;2022-11-23T00:32:15;29.83;;;11.47;;
65572;SDS011;52214;50.940;13.996;2022-11-23T00:34:40;29.73;;;10.20;;
65572;SDS011;52214;50.940;13.996;2022-11-23T00:37:06;29.38;;;10.77;;
65572;SDS011;52214;50.940;13.996;2022-11-23T00:39:31;26.80;;;9.80;;
65572;SDS011;52214;50.940;13.996;2022-11-23T00:41:57;32.07;;;11.17;;
65572;SDS011;52214;50.940;13.996;2022-11-23T00:44:22;32.05;;;11.18;;
65572;SDS011;52214;50.940;13.996;2022-11-23T00:46:48;26.88;;;10.38;;
65572;SDS011;52214;50.940;13.996;2022-11-23T00:49:13;28.23;;;9.33;;
65572;SDS011;52214;50.940;13.996;2022-11-23T00:51:39;28.27;;;10.57;;
65572;SDS011;52214;50.940;13.996;2022-11-23T00:54:05;34.40;;;10.70;;
65572;SDS011;52214;50.940;13.996;2022-11-23T00:56:31;31.23;;;10.63;;
65572;SDS011;52214;50.940;13.996;2022-11-23T00:58:59;34.15;;;10.02;;
65572;SDS011;52214;50.940;13.996;2022-11-23T01:01:27;29.60;;;11.50;;
65572;SDS011;52214;50.940;13.996;2022-11-23T01:03:56;27.25;;;10.75;;
65572;SDS011;52214;50.940;13.996;2022-11-23T01:06:24;26.55;;;10.48;;
65572;SDS011;52214;50.940;13.996;2022-11-23T01:08:52;35.33;;;11.63;;
65572;SDS011;52214;50.940;13.996;2022-11-23T01:11:19;32.80;;;11.02;;
65572;SDS011;52214;50.940;13.996;2022-11-23T01:13:46;26.55;;;10.35;;
65572;SDS011;52214;50.940;13.996;2022-11-23T01:16:14;33.00;;;11.60;;
65572;SDS011;52214;50.940;13.996;2022-11-23T01:18:44;31.60;;;9.90;;
65572;SDS011;52214;50.940;13.996;2022-11-23T01:21:09;30.23;;;11.37;;
65572;SDS011;52214;50.940;13.996;2022-11-23T01:23:35;32.07;;;10.57;;
65572;SDS011;52214;50.940;13.996;2022-11-23T01:26:07;32.85;;;10.75;;
65572;SDS011;52214;50.940;13.996;2022-11-23T01:28:35;31.93;;;11.43;;
65572;SDS011;52214;50.940;13.996;2022-11-23T01:31:03;32.17;;;10.82;;
65572;SDS011;52214;50.940;13.996;2022-11-23T01:33:30;33.80;;;10.95;;
65572;SDS011;52214;50.940;13.996;2022-11-23T01:35:55;32.17;;;10.87;;
65572;SDS011;52214;50.940;13.996;2022-11-23T01:38:21;32.22;;;10.93;;
65572;SDS011;52214;50.940;13.996;2022-11-23T01:40:47;28.83;;;11.10;;
65572;SDS011;52214;50.940;13.996;2022-11-23T01:43:13;31.77;;;10.80;;
65572;SDS011;52214;50.940;13.996;2022-11-23T01:45:52;31.60;;;11.30;;
65572;SDS011;52214;50.940;13.996;2022-11-23T01:49:07;32.30;;;11.57;;
65572;SDS011;52214;50.940;13.996;2022-11-23T01:51:15;28.43;;;10.60;;
65572;SDS011;52214;50.940;13.996;2022-11-23T01:53:45;29.48;;;10.75;;
65572;SDS011;52214;50.940;13.996;2022-11-23T01:56:19;34.42;;;11.20;;
65572;SDS011;52214;50.940;13.996;2022-11-23T01:58:51;29.45;;;9.48;;
65572;SDS011;52214;50.940;13.996;2022-11-23T02:01:21;31.75;;;10.48;;
65572;SDS011;52214;50.940;13.996;2022-11-23T02:03:47;32.22;;;10.80;;
65572;SDS011;52214;50.940;13.996;2022-11-23T02:06:14;31.23;;;10.18;;
65572;SDS011;52214;50.940;13.996;2022-11-23T02:08:41;33.07;;;10.53;;
65572;SDS011;52214;50.940;13.996;2022-11-23T02:11:08;30.65;;;10.55;;
65572;SDS011;52214;50.940;13.996;2022-11-23T02:13:36;37.45;;;11.90;;
65572;SDS011;52214;50.940;13.996;2022-11-23T02:16:02;26.83;;;10.40;;
65572;SDS011;52214;50.940;13.996;2022-11-23T02:18:29;33.70;;;11.75;;
65572;SDS011;52214;50.940;13.996;2022-11-23T02:21:00;33.33;;;11.18;;
65572;SDS011;52214;50.940;13.996;2022-11-23T02:26:12;28.30;;;10.68;;
65572;SDS011;52214;50.940;13.996;2022-11-23T02:28:44;27.53;;;9.87;;
65572;SDS011;52214;50.940;13.996;2022-11-23T02:31:13;33.72;;;11.10;;
65572;SDS011;52214;50.940;13.996;2022-11-23T02:33:39;29.48;;;10.40;;
65572;SDS011;52214;50.940;13.996;2022-11-23T02:36:48;30.92;;;10.70;;
65572;SDS011;52214;50.940;13.996;2022-11-23T02:39:04;36.95;;;11.43;;
65572;SDS011;52214;50.940;13.996;2022-11-23T02:44:08;34.90;;;11.27;;
65572;SDS011;52214;50.940;13.996;2022-11-23T02:46:42;31.58;;;11.27;;
65572;SDS011;52214;50.940;13.996;2022-11-23T02:49:08;28.42;;;10.38;;
65572;SDS011;52214;50.940;13.996;2022-11-23T02:51:34;31.17;;;10.00;;
65572;SDS011;52214;50.940;13.996;2022-11-23T02:53:59;33.83;;;10.63;;
65572;SDS011;52214;50.940;13.996;2022-11-23T02:56:25;33.60;;;11.07;;
65572;SDS011;52214;50.940;13.996;2022-11-23T02:58:51;31.27;;;10.30;;
65572;SDS011;52214;50.940;13.996;2022-11-23T03:01:17;28.80;;;11.02;;
65572;SDS011;52214;50.940;13.996;2022-11-23T03:03:42;32.90;;;10.47;;
65572;SDS011;52214;50.940;13.996;2022-11-23T03:06:08;29.83;;;9.43;;
65572;SDS011;52214;50.940;13.996;2022-11-23T03:08:33;37.17;;;10.90;;
65572;SDS011;52214;50.940;13.996;2022-11-23T03:11:00;35.95;;;10.93;;
65572;SDS011;52214;50.940;13.996;2022-11-23T03:13:26;40.17;;;12.23;;
65572;SDS011;52214;50.940;13.996;2022-11-23T03:15:53;34.70;;;10.52;;
65572;SDS011;52214;50.940;13.996;2022-11-23T03:18:24;36.78;;;12.48;;
65572;SDS011;52214;50.940;13.996;2022-11-23T03:20:50;37.60;;;11.55;;
65572;SDS011;52214;50.940;13.996;2022-11-23T03:23:16;33.23;;;10.80;;
65572;SDS011;52214;50.940;13.996;2022-11-23T03:25:41;34.93;;;10.17;;
65572;SDS011;52214;50.940;13.996;2022-11-23T03:28:07;32.27;;;10.30;;
65572;SDS011;52214;50.940;13.996;2022-11-23T03:30:32;23.63;;;8.88;;
65572;SDS011;52214;50.940;13.996;2022-11-23T03:32:58;32.50;;;10.53;;
65572;SDS011;52214;50.940;13.996;2022-11-23T03:35:23;39.00;;;11.33;;
65572;SDS011;52214;50.940;13.996;2022-11-23T03:37:49;34.72;;;11.30;;
65572;SDS011;52214;50.940;13.996;2022-11-23T03:40:14;33.47;;;10.87;;
65572;SDS011;52214;50.940;13.996;2022-11-23T03:42:40;37.53;;;11.93;;
65572;SDS011;52214;50.940;13.996;2022-11-23T03:45:06;29.77;;;10.63;;
65572;SDS011;52214;50.940;13.996;2022-11-23T03:47:33;34.28;;;11.35;;
65572;SDS011;52214;50.940;13.996;2022-11-23T03:49:58;35.45;;;12.32;;
65572;SDS011;52214;50.940;13.996;2022-11-23T03:52:24;37.33;;;12.10;;
65572;SDS011;52214;50.940;13.996;2022-11-23T03:54:49;37.90;;;11.97;;
65572;SDS011;52214;50.940;13.996;2022-11-23T03:57:15;40.83;;;12.23;;
65572;SDS011;52214;50.940;13.996;2022-11-23T03:59:40;39.17;;;12.07;;
65572;SDS011;52214;50.940;13.996;2022-11-23T04:02:06;37.60;;;11.73;;
65572;SDS011;52214;50.940;13.996;2022-11-23T04:04:32;42.90;;;12.13;;
65572;SDS011;52214;50.940;13.996;2022-11-23T04:06:58;41.05;;;12.32;;
65572;SDS011;52214;50.940;13.996;2022-11-23T04:09:24;41.77;;;13.43;;
65572;SDS011;52214;50.940;13.996;2022-11-23T04:11:50;40.60;;;13.32;;
65572;SDS011;52214;50.940;13.996;2022-11-23T04:14:15;37.45;;;12.40;;
65572;SDS011;52214;50.940;13.996;2022-11-23T04:16:41;38.08;;;12.25;;
65572;SDS011;52214;50.940;13.996;2022-11-23T04:19:07;39.85;;;12.68;;
65572;SDS011;52214;50.940;13.996;2022-11-23T04:21:32;39.27;;;12.37;;
65572;SDS011;52214;50.940;13.996;2022-11-23T04:23:58;45.13;;;13.50;;
65572;SDS011;52214;50.940;13.996;2022-11-23T04:26:24;45.38;;;13.60;;
65572;SDS011;52214;50.940;13.996;2022-11-23T04:28:49;41.33;;;13.63;;
65572;SDS011;52214;50.940;13.996;2022-11-23T04:31:15;42.83;;;12.30;;
65572;SDS011;52214;50.940;13.996;2022-11-23T04:33:40;44.50;;;13.27;;
65572;SDS011;52214;50.940;13.996;2022-11-23T04:36:06;45.13;;;12.90;;
65572;SDS011;52214;50.940;13.996;2022-11-23T04:38:32;39.65;;;13.68;;
65572;SDS011;52214;50.940;13.996;2022-11-23T04:40:57;41.00;;;12.03;;
65572;SDS011;52214;50.940;13.996;2022-11-23T04:43:23;43.40;;;14.70;;
65572;SDS011;52214;50.940;13.996;2022-11-23T04:45:48;36.83;;;12.10;;
65572;SDS011;52214;50.940;13.996;2022-11-23T04:48:14;46.67;;;13.33;;
65572;SDS011;52214;50.940;13.996;2022-11-23T04:50:39;43.23;;;12.33;;
65572;SDS011;52214;50.940;13.996;2022-11-23T04:53:06;42.88;;;13.13;;
65572;SDS011;52214;50.940;13.996;2022-11-23T04:55:32;31.58;;;10.77;;
65572;SDS011;52214;50.940;13.996;2022-11-23T04:57:58;38.90;;;12.70;;
65572;SDS011;52214;50.940;13.996;2022-11-23T05:00:24;40.97;;;12.73;;
65572;SDS011;52214;50.940;13.996;2022-11-23T05:02:50;39.97;;;12.88;;
65572;SDS011;52214;50.940;13.996;2022-11-23T05:05:15;41.60;;;12.53;;
65572;SDS011;52214;50.940;13.996;2022-11-23T05:07:41;40.45;;;13.30;;
65572;SDS011;52214;50.940;13.996;2022-11-23T05:10:07;38.37;;;12.87;;
65572;SDS011;52214;50.940;13.996;2022-11-23T05:12:33;38.88;;;12.88;;
65572;SDS011;52214;50.940;13.996;2022-11-23T05:14:58;35.27;;;11.97;;
65572;SDS011;52214;50.940;13.996;2022-11-23T05:17:24;35.63;;;11.30;;
65572;SDS011;52214;50.940;13.996;2022-11-23T05:19:49;38.60;;;11.73;;
65572;SDS011;52214;50.940;13.996;2022-11-23T05:22:15;43.57;;;12.43;;
65572;SDS011;52214;50.940;13.996;2022-11-23T05:24:40;37.37;;;12.30;;
65572;SDS011;52214;50.940;13.996;2022-11-23T05:27:06;39.58;;;12.32;;
65572;SDS011;52214;50.940;13.996;2022-11-23T05:29:32;40.50;;;12.60;;
65572;SDS011;52214;50.940;13.996;2022-11-23T05:31:57;43.50;;;12.47;;
65572;SDS011;52214;50.940;13.996;2022-11-23T05:34:23;37.43;;;11.63;;
65572;SDS011;52214;50.940;13.996;2022-11-23T05:36:48;46.30;;;12.27;;
65572;SDS011;52214;50.940;13.996;2022-11-23T05:39:14;35.67;;;11.27;;
65572;SDS011;52214;50.940;13.996;2022-11-23T05:41:39;44.10;;;12.83;;
65572;SDS011;52214;50.940;13.996;2022-11-23T05:44:05;38.15;;;11.98;;
65572;SDS011;52214;50.940;13.996;2022-11-23T05:46:30;38.13;;;12.33;;
65572;SDS011;52214;50.940;13.996;2022-11-23T05:48:56;36.03;;;12.10;;
65572;SDS011;52214;50.940;13.996;2022-11-23T05:51:21;40.35;;;13.32;;
65572;SDS011;52214;50.940;13.996;2022-11-23T05:53:47;36.45;;;12.02;;
65572;SDS011;52214;50.940;13.996;2022-11-23T05:56:12;41.60;;;11.73;;
65572;SDS011;52214;50.940;13.996;2022-11-23T05:58:38;38.87;;;11.77;;
65572;SDS011;52214;50.940;13.996;2022-11-23T06:01:03;34.63;;;12.02;;
65572;SDS011;52214;50.940;13.996;2022-11-23T06:03:29;36.40;;;11.93;;
65572;SDS011;52214;50.940;13.996;2022-11-23T06:05:54;41.03;;;12.90;;
65572;SDS011;52214;50.940;13.996;2022-11-23T06:08:20;38.25;;;12.75;;
65572;SDS011;52214;50.940;13.996;2022-11-23T06:10:46;36.07;;;11.70;;
65572;SDS011;52214;50.940;13.996;2022-11-23T06:13:11;38.67;;;12.57;;
65572;SDS011;52214;50.940;13.996;2022-11-23T06:15:37;38.42;;;12.07;;
65572;SDS011;52214;50.940;13.996;2022-11-23T06:18:02;39.38;;;12.57;;
65572;SDS011;52214;50.940;13.996;2022-11-23T06:20:28;37.45;;;11.82;;
65572;SDS011;52214;50.940;13.996;2022-11-23T06:22:54;39.83;;;12.52;;
65572;SDS011;52214;50.940;13.996;2022-11-23T06:25:20;37.97;;;12.48;;
65572;SDS011;52214;50.940;13.996;2022-11-23T06:27:54;37.05;;;12.80;;
65572;SDS011;52214;50.940;13.996;2022-11-23T06:30:25;36.55;;;13.20;;
65572;SDS011;52214;50.940;13.996;2022-11-23T06:32:52;41.53;;;13.10;;
65572;SDS011;52214;50.940;13.996;2022-11-23T06:35:17;41.97;;;11.70;;
65572;SDS011;52214;50.940;13.996;2022-11-23T06:37:43;43.30;;;13.50;;
65572;SDS011;52214;50.940;13.996;2022-11-23T06:40:10;37.85;;;12.00;;
65572;SDS011;52214;50.940;13.996;2022-11-23T06:42:36;33.63;;;13.15;;
65572;SDS011;52214;50.940;13.996;2022-11-23T06:45:02;36.93;;;12.07;;
65572;SDS011;52214;50.940;13.996;2022-11-23T06:47:27;35.70;;;11.55;;
65572;SDS011;52214;50.940;13.996;2022-11-23T06:49:53;34.43;;;11.27;;
65572;SDS011;52214;50.940;13.996;2022-11-23T06:52:19;37.92;;;12.25;;
65572;SDS011;52214;50.940;13.996;2022-11-23T06:54:45;36.80;;;11.90;;
65572;SDS011;52214;50.940;13.996;2022-11-23T06:57:10;40.65;;;12.63;;
65572;SDS011;52214;50.940;13.996;2022-11-23T06:59:36;42.85;;;12.10;;
65572;SDS011;52214;50.940;13.996;2022-11-23T07:02:01;41.77;;;13.00;;
65572;SDS011;52214;50.940;13.996;2022-11-23T07:04:27;41.40;;;12.23;;
65572;SDS011;52214;50.940;13.996;2022-11-23T07:06:52;42.13;;;13.07;;
65572;SDS011;52214;50.940;13.996;2022-11-23T07:09:18;35.83;;;11.77;;
65572;SDS011;52214;50.940;13.996;2022-11-23T07:11:44;41.67;;;13.83;;
65572;SDS011;52214;50.940;13.996;2022-11-23T07:14:09;39.88;;;13.10;;
65572;SDS011;52214;50.940;13.996;2022-11-23T07:16:35;44.23;;;13.40;;
65572;SDS011;52214;50.940;13.996;2022-11-23T07:19:00;39.30;;;12.67;;
65572;SDS011;52214;50.940;13.996;2022-11-23T07:21:26;37.80;;;12.60;;
65572;SDS011;52214;50.940;13.996;2022-11-23T07:23:51;39.47;;;13.07;;
65572;SDS011;52214;50.940;13.996;2022-11-23T07:26:17;42.30;;;13.93;;
65572;SDS011;52214;50.940;13.996;2022-11-23T07:28:43;36.45;;;13.05;;
65572;SDS011;52214;50.940;13.996;2022-11-23T07:31:08;45.63;;;13.47;;
65572;SDS011;52214;50.940;13.996;2022-11-23T07:33:34;39.80;;;12.70;;
65572;SDS011;52214;50.940;13.996;2022-11-23T07:36:00;38.63;;;12.75;;
65572;SDS011;52214;50.940;13.996;2022-11-23T07:38:27;40.05;;;12.20;;
65572;SDS011;52214;50.940;13.996;2022-11-23T07:40:53;42.08;;;13.18;;
65572;SDS011;52214;50.940;13.996;2022-11-23T07:43:18;36.17;;;13.47;;
65572;SDS011;52214;50.940;13.996;2022-11-23T07:45:44;35.70;;;13.05;;
65572;SDS011;52214;50.940;13.996;2022-11-23T07:48:09;43.27;;;15.00;;
65572;SDS011;52214;50.940;13.996;2022-11-23T07:50:35;42.00;;;13.10;;
65572;SDS011;52214;50.940;13.996;2022-11-23T07:53:02;42.30;;;14.18;;
65572;SDS011;52214;50.940;13.996;2022-11-23T07:55:29;35.67;;;12.93;;
65572;SDS011;52214;50.940;13.996;2022-11-23T07:57:56;36.28;;;14.15;;
65572;SDS011;52214;50.940;13.996;2022-11-23T08:00:22;39.08;;;14.05;;
65572;SDS011;52214;50.940;13.996;2022-11-23T08:02:49;42.10;;;14.30;;
65572;SDS011;52214;50.940;13.996;2022-11-23T08:05:15;45.22;;;14.73;;
65572;SDS011;52214;50.940;13.996;2022-11-23T08:07:42;35.42;;;13.38;;
65572;SDS011;52214;50.940;13.996;2022-11-23T08:10:09;42.97;;;14.18;;
65572;SDS011;52214;50.940;13.996;2022-11-23T08:12:37;38.97;;;13.67;;
65572;SDS011;52214;50.940;13.996;2022-11-23T08:15:03;45.67;;;14.23;;
65572;SDS011;52214;50.940;13.996;2022-11-23T08:17:28;39.22;;;14.27;;
65572;SDS011;52214;50.940;13.996;2022-11-23T08:19:54;37.33;;;13.33;;
65572;SDS011;52214;50.940;13.996;2022-11-23T08:22:19;36.55;;;13.60;;
65572;SDS011;52214;50.940;13.996;2022-11-23T08:24:45;42.47;;;14.05;;
65572;SDS011;52214;50.940;13.996;2022-11-23T08:27:12;43.83;;;14.68;;
65572;SDS011;52214;50.940;13.996;2022-11-23T08:29:37;42.90;;;14.37;;
65572;SDS011;52214;50.940;13.996;2022-11-23T08:32:03;39.50;;;14.57;;
65572;SDS011;52214;50.940;13.996;2022-11-23T08:34:29;34.40;;;14.02;;
65572;SDS011;52214;50.940;13.996;2022-11-23T08:36:54;42.27;;;13.87;;
65572;SDS011;52214;50.940;13.996;2022-11-23T08:39:20;39.50;;;13.80;;
65572;SDS011;52214;50.940;13.996;2022-11-23T08:41:46;40.37;;;13.47;;
65572;SDS011;52214;50.940;13.996;2022-11-23T08:44:11;33.60;;;12.60;;
65572;SDS011;52214;50.940;13.996;2022-11-23T08:46:37;34.72;;;12.52;;
65572;SDS011;52214;50.940;13.996;2022-11-23T08:49:03;39.77;;;13.17;;
65572;SDS011;52214;50.940;13.996;2022-11-23T08:51:30;37.80;;;13.48;;
65572;SDS011;52214;50.940;13.996;2022-11-23T08:53:56;31.63;;;12.30;;
65572;SDS011;52214;50.940;13.996;2022-11-23T08:56:21;32.33;;;12.00;;
65572;SDS011;52214;50.940;13.996;2022-11-23T08:58:47;33.42;;;12.38;;
65572;SDS011;52214;50.940;13.996;2022-11-23T09:01:14;35.10;;;13.20;;
65572;SDS011;52214;50.940;13.996;2022-11-23T09:03:41;33.30;;;12.45;;
65572;SDS011;52214;50.940;13.996;2022-11-23T09:06:07;32.08;;;11.95;;
65572;SDS011;52214;50.940;13.996;2022-11-23T09:08:33;27.73;;;11.73;;
65572;SDS011;52214;50.940;13.996;2022-11-23T09:10:59;33.83;;;12.32;;
65572;SDS011;52214;50.940;13.996;2022-11-23T09:13:29;34.38;;;11.75;;
65572;SDS011;52214;50.940;13.996;2022-11-23T09:15:56;25.77;;;11.13;;
65572;SDS011;52214;50.940;13.996;2022-11-23T09:18:23;29.65;;;10.65;;
65572;SDS011;52214;50.940;13.996;2022-11-23T09:20:48;31.38;;;12.13;;
65572;SDS011;52214;50.940;13.996;2022-11-23T09:23:14;26.83;;;10.90;;
65572;SDS011;52214;50.940;13.996;2022-11-23T09:25:39;31.25;;;11.32;;
65572;SDS011;52214;50.940;13.996;2022-11-23T09:28:07;31.50;;;11.13;;
65572;SDS011;52214;50.940;13.996;2022-11-23T09:30:32;29.80;;;10.38;;
65572;SDS011;52214;50.940;13.996;2022-11-23T09:32:58;28.63;;;11.20;;
65572;SDS011;52214;50.940;13.996;2022-11-23T09:35:23;27.10;;;10.40;;
65572;SDS011;52214;50.940;13.996;2022-11-23T09:37:58;33.22;;;11.43;;
65572;SDS011;52214;50.940;13.996;2022-11-23T09:40:27;28.58;;;10.13;;
65572;SDS011;52214;50.940;13.996;2022-11-23T09:45:48;29.33;;;11.05;;
65572;SDS011;52214;50.940;13.996;2022-11-23T09:49:00;29.27;;;10.73;;
65572;SDS011;52214;50.940;13.996;2022-11-23T09:53:54;26.42;;;10.20;;
65572;SDS011;52214;50.940;13.996;2022-11-23T09:56:27;27.17;;;10.70;;
65572;SDS011;52214;50.940;13.996;2022-11-23T09:58:57;26.52;;;10.48;;
65572;SDS011;52214;50.940;13.996;2022-11-23T10:01:25;27.33;;;10.57;;
65572;SDS011;52214;50.940;13.996;2022-11-23T10:03:55;26.15;;;10.23;;
65572;SDS011;52214;50.940;13.996;2022-11-23T10:06:26;26.02;;;10.30;;
65572;SDS011;52214;50.940;13.996;2022-11-23T10:17:27;24.80;;;9.40;;
65572;SDS011;52214;50.940;13.996;2022-11-23T10:20:01;25.48;;;9.95;;
65572;SDS011;52214;50.940;13.996;2022-11-23T10:25:04;22.38;;;9.77;;
65572;SDS011;52214;50.940;13.996;2022-11-23T10:27:39;24.40;;;10.07;;
65572;SDS011;52214;50.940;13.996;2022-11-23T10:30:10;26.77;;;10.07;;
65572;SDS011;52214;50.940;13.996;2022-11-23T10:35:12;25.93;;;10.13;;
65572;SDS011;52214;50.940;13.996;2022-11-23T10:37:43;26.80;;;9.73;;
65572;SDS011;52214;50.940;13.996;2022-11-23T10:40:18;22.58;;;9.30;;
65572;SDS011;52214;50.940;13.996;2022-11-23T10:42:52;24.37;;;9.13;;
65572;SDS011;52214;50.940;13.996;2022-11-23T10:45:24;23.33;;;9.90;;
65572;SDS011;52214;50.940;13.996;2022-11-23T10:47:55;23.58;;;9.88;;
65572;SDS011;52214;50.940;13.996;2022-11-23T10:53:27;25.30;;;9.77;;
65572;SDS011;52214;50.940;13.996;2022-11-23T10:56:10;22.80;;;9.37;;
65572;SDS011;52214;50.940;13.996;2022-11-23T10:58:43;22.65;;;8.98;;
65572;SDS011;52214;50.940;13.996;2022-11-23T11:01:14;22.92;;;9.48;;
65572;SDS011;52214;50.940;13.996;2022-11-23T11:03:43;21.77;;;9.05;;
65572;SDS011;52214;50.940;13.996;2022-11-23T11:06:09;24.60;;;10.07;;
65572;SDS011;52214;50.940;13.996;2022-11-23T11:08:53;24.10;;;9.95;;
65572;SDS011;52214;50.940;13.996;2022-11-23T11:13:48;24.83;;;9.13;;
65572;SDS011;52214;50.940;13.996;2022-11-23T11:16:18;22.90;;;9.63;;
65572;SDS011;52214;50.940;13.996;2022-11-23T11:18:43;23.58;;;9.63;;
65572;SDS011;52214;50.940;13.996;2022-11-23T11:23:51;23.60;;;10.43;;
65572;SDS011;52214;50.940;13.996;2022-11-23T11:26:25;22.37;;;9.73;;
65572;SDS011;52214;50.940;13.996;2022-11-23T11:28:53;25.40;;;11.02;;
65572;SDS011;52214;50.940;13.996;2022-11-23T11:36:40;22.80;;;10.02;;
65572;SDS011;52214;50.940;13.996;2022-11-23T11:39:14;24.13;;;9.70;;
65572;SDS011;52214;50.940;13.996;2022-11-23T11:41:48;23.08;;;10.27;;
65572;SDS011;52214;50.940;13.996;2022-11-23T11:44:23;20.90;;;8.77;;
65572;SDS011;52214;50.940;13.996;2022-11-23T11:46:55;21.70;;;9.25;;
65572;SDS011;52214;50.940;13.996;2022-11-23T11:51:57;21.30;;;10.03;;
65572;SDS011;52214;50.940;13.996;2022-11-23T11:57:04;22.90;;;10.07;;
65572;SDS011;52214;50.940;13.996;2022-11-23T11:59:55;19.83;;;9.20;;
65572;SDS011;52214;50.940;13.996;2022-11-23T12:02:25;22.25;;;9.75;;
65572;SDS011;52214;50.940;13.996;2022-11-23T12:04:56;22.00;;;9.20;;
65572;SDS011;52214;50.940;13.996;2022-11-23T12:11:00;24.38;;;9.75;;
65572;SDS011;52214;50.940;13.996;2022-11-23T12:13:04;25.42;;;10.32;;
65572;SDS011;52214;50.940;13.996;2022-11-23T12:15:39;25.23;;;10.97;;
65572;SDS011;52214;50.940;13.996;2022-11-23T12:18:32;23.65;;;10.63;;
65572;SDS011;52214;50.940;13.996;2022-11-23T12:27:32;24.27;;;11.10;;
65572;SDS011;52214;50.940;13.996;2022-11-23T12:41:35;23.20;;;9.63;;
65572;SDS011;52214;50.940;13.996;2022-11-23T12:46:57;25.42;;;10.32;;
65572;SDS011;52214;50.940;13.996;2022-11-23T12:49:44;25.65;;;10.05;;
65572;SDS011;52214;50.940;13.996;2022-11-23T12:58:05;23.60;;;10.38;;
65572;SDS011;52214;50.940;13.996;2022-11-23T13:00:50;25.50;;;10.50;;
65572;SDS011;52214;50.940;13.996;2022-11-23T13:06:38;21.40;;;9.85;;
65572;SDS011;52214;50.940;13.996;2022-11-23T13:17:31;25.23;;;10.93;;
65572;SDS011;52214;50.940;13.996;2022-11-23T13:22:44;22.67;;;9.80;;
65572;SDS011;52214;50.940;13.996;2022-11-23T13:25:20;26.17;;;10.48;;
65572;SDS011;52214;50.940;13.996;2022-11-23T13:40:38;26.02;;;10.45;;
65572;SDS011;52214;50.940;13.996;2022-11-23T13:45:42;28.13;;;10.57;;
65572;SDS011;52214;50.940;13.996;2022-11-23T13:50:38;28.90;;;11.27;;
65572;SDS011;52214;50.940;13.996;2022-11-23T13:53:23;27.08;;;10.40;;
65572;SDS011;52214;50.940;13.996;2022-11-23T13:55:54;25.80;;;10.32;;
65572;SDS011;52214;50.940;13.996;2022-11-23T13:58:40;26.73;;;10.52;;
65572;SDS011;52214;50.940;13.996;2022-11-23T14:01:56;22.10;;;9.97;;
65572;SDS011;52214;50.940;13.996;2022-11-23T14:04:23;26.92;;;10.20;;
65572;SDS011;52214;50.940;13.996;2022-11-23T14:06:51;23.38;;;10.32;;
65572;SDS011;52214;50.940;13.996;2022-11-23T14:25:53;26.95;;;10.43;;
65572;SDS011;52214;50.940;13.996;2022-11-23T14:28:50;24.10;;;8.93;;
65572;SDS011;52214;50.940;13.996;2022-11-23T14:42:57;23.30;;;9.37;;
65572;SDS011;52214;50.940;13.996;2022-11-23T14:45:28;24.60;;;8.90;;
65572;SDS011;52214;50.940;13.996;2022-11-23T14:48:18;23.23;;;10.00;;
65572;SDS011;52214;50.940;13.996;2022-11-23T14:50:56;26.17;;;9.32;;
65572;SDS011;52214;50.940;13.996;2022-11-23T14:53:31;23.88;;;9.50;;
65572;SDS011;52214;50.940;13.996;2022-11-23T14:55:59;25.53;;;9.90;;
65572;SDS011;52214;50.940;13.996;2022-11-23T14:58:25;26.42;;;10.48;;
65572;SDS011;52214;50.940;13.996;2022-11-23T15:00:59;24.52;;;10.15;;
65572;SDS011;52214;50.940;13.996;2022-11-23T15:03:26;24.05;;;10.00;;
65572;SDS011;52214;50.940;13.996;2022-11-23T15:05:56;28.65;;;11.13;;
65572;SDS011;52214;50.940;13.996;2022-11-23T15:08:34;30.17;;;11.57;;
65572;SDS011;52214;50.940;13.996;2022-11-23T15:11:13;29.08;;;10.75;;
65572;SDS011;52214;50.940;13.996;2022-11-23T15:16:12;29.25;;;10.88;;
65572;SDS011;52214;50.940;13.996;2022-11-23T15:18:39;25.80;;;10.40;;
65572;SDS011;52214;50.940;13.996;2022-11-23T15:21:13;31.50;;;11.07;;
65572;SDS011;52214;50.940;13.996;2022-11-23T15:23:49;30.45;;;11.27;;
65572;SDS011;52214;50.940;13.996;2022-11-23T15:26:17;29.35;;;11.85;;
65572;SDS011;52214;50.940;13.996;2022-11-23T15:28:44;24.08;;;10.68;;
65572;SDS011;52214;50.940;13.996;2022-11-23T15:31:26;26.25;;;11.32;;
65572;SDS011;52214;50.940;13.996;2022-11-23T15:34:00;30.10;;;10.57;;
65572;SDS011;52214;50.940;13.996;2022-11-23T15:36:40;26.98;;;10.95;;
65572;SDS011;52214;50.940;13.996;2022-11-23T15:39:12;27.92;;;11.00;;
65572;SDS011;52214;50.940;13.996;2022-11-23T15:41:44;31.50;;;10.40;;
65572;SDS011;52214;50.940;13.996;2022-11-23T15:44:29;31.25;;;11.32;;
65572;SDS011;52214;50.940;13.996;2022-11-23T15:46:57;30.90;;;10.80;;
65572;SDS011;52214;50.940;13.996;2022-11-23T15:49:25;35.70;;;11.13;;
65572;SDS011;52214;50.940;13.996;2022-11-23T15:51:51;31.77;;;11.52;;
65572;SDS011;52214;50.940;13.996;2022-11-23T15:54:24;30.23;;;11.90;;
65572;SDS011;52214;50.940;13.996;2022-11-23T15:56:53;30.08;;;11.52;;
65572;SDS011;52214;50.940;13.996;2022-11-23T16:02:13;34.17;;;11.43;;
65572;SDS011;52214;50.940;13.996;2022-11-23T16:04:47;32.28;;;11.38;;
65572;SDS011;52214;50.940;13.996;2022-11-23T16:07:17;33.37;;;11.57;;
65572;SDS011;52214;50.940;13.996;2022-11-23T16:09:45;31.52;;;10.63;;
65572;SDS011;52214;50.940;13.996;2022-11-23T16:12:19;30.67;;;11.43;;
65572;SDS011;52214;50.940;13.996;2022-11-23T16:14:45;34.75;;;12.40;;
65572;SDS011;52214;50.940;13.996;2022-11-23T16:17:16;34.83;;;13.87;;
65572;SDS011;52214;50.940;13.996;2022-11-23T16:19:48;28.63;;;10.85;;
65572;SDS011;52214;50.940;13.996;2022-11-23T16:22:20;32.47;;;12.00;;
65572;SDS011;52214;50.940;13.996;2022-11-23T16:24:54;38.90;;;11.57;;
65572;SDS011;52214;50.940;13.996;2022-11-23T16:27:28;32.38;;;12.02;;
65572;SDS011;52214;50.940;13.996;2022-11-23T16:29:54;29.20;;;11.50;;
65572;SDS011;52214;50.940;13.996;2022-11-23T16:32:29;30.65;;;12.43;;
65572;SDS011;52214;50.940;13.996;2022-11-23T16:35:07;44.47;;;13.30;;
65572;SDS011;52214;50.940;13.996;2022-11-23T16:37:41;36.67;;;12.93;;